Time;durP1;ratioP1;P1;durP2;ratioP2;P2;SDS_P1;SDS_P2;PMS_P1;PMS_P2;Temp;Humidity;BMP_temperature;BMP_pressure;BME280_temperature;BME280_humidity;BME280_pressure;Samples;Min_cycle;Max_cycle;Signal;HPM_P1;HPM_P2
2021/06/30 00:01:41;;;;;;;25.55;3.95;;;39.30;24.90;;;;;;5040840;28;20570;-60
2021/06/30 00:04:08;;;;;;;17.70;3.67;;;39.40;24.60;;;;;;5040280;28;20107;-69
2021/06/30 00:06:34;;;;;;;19.50;3.50;;;39.30;25.00;;;;;;5041420;28;20618;-67
2021/06/30 00:09:01;;;;;;;24.92;3.40;;;39.20;24.30;;;;;;5041788;28;20085;-68
2021/06/30 00:11:28;;;;;;;25.42;4.03;;;39.00;24.50;;;;;;5040018;28;20097;-67
2021/06/30 00:13:54;;;;;;;14.25;3.30;;;38.90;25.00;;;;;;5041405;28;20066;-68
2021/06/30 00:16:21;;;;;;;22.38;4.38;;;39.00;24.90;;;;;;5057199;28;20097;-67
2021/06/30 00:18:47;;;;;;;20.95;5.70;;;38.80;24.50;;;;;;5043349;28;20070;-67
2021/06/30 00:21:14;;;;;;;22.67;7.25;;;38.80;24.30;;;;;;5040640;28;20066;-67
2021/06/30 00:23:42;;;;;;;62.08;8.27;;;38.80;24.00;;;;;;5046072;28;21347;-68
2021/06/30 00:26:09;;;;;;;25.63;7.50;;;38.80;24.00;;;;;;5059289;28;20195;-68
2021/06/30 00:28:35;;;;;;;21.83;5.95;;;38.70;23.70;;;;;;5037850;28;20090;-69
2021/06/30 00:31:02;;;;;;;28.80;6.65;;;38.60;24.40;;;;;;5042048;28;20081;-69
2021/06/30 00:33:28;;;;;;;21.20;5.20;;;38.70;24.10;;;;;;5045963;28;20162;-68
2021/06/30 00:35:55;;;;;;;20.40;5.10;;;38.50;23.50;;;;;;5041757;28;20085;-62
2021/06/30 00:38:21;;;;;;;63.17;6.93;;;38.40;23.50;;;;;;5043411;28;20218;-64
2021/06/30 00:40:48;;;;;;;34.03;4.78;;;38.40;23.20;;;;;;5042623;28;20101;-63
2021/06/30 00:43:14;;;;;;;20.85;4.35;;;38.50;23.30;;;;;;5046431;28;20437;-64
2021/06/30 00:45:41;;;;;;;27.83;4.75;;;38.30;23.50;;;;;;5047320;28;20070;-65
2021/06/30 00:48:09;;;;;;;31.35;4.57;;;38.30;23.40;;;;;;5061261;28;20101;-64
2021/06/30 00:50:35;;;;;;;25.17;3.78;;;38.30;23.10;;;;;;5044363;28;20145;-64
2021/06/30 00:53:02;;;;;;;23.17;3.30;;;38.20;23.10;;;;;;5045495;28;20086;-63
2021/06/30 00:55:29;;;;;;;21.77;3.28;;;38.30;23.10;;;;;;5048645;28;20081;-65
2021/06/30 00:57:57;;;;;;;34.50;3.95;;;38.30;22.80;;;;;;5048111;28;20085;-64
2021/06/30 01:00:24;;;;;;;16.58;2.85;;;38.20;22.40;;;;;;5047961;28;20081;-65
2021/06/30 01:02:51;;;;;;;26.15;3.83;;;38.30;22.30;;;;;;5046133;28;20078;-65
2021/06/30 01:05:18;;;;;;;18.85;3.75;;;38.30;22.50;;;;;;5062368;28;20136;-63
2021/06/30 01:07:45;;;;;;;20.98;3.53;;;38.30;22.10;;;;;;5043723;28;20098;-65
2021/06/30 01:10:11;;;;;;;30.80;4.10;;;38.30;22.40;;;;;;5048614;28;20152;-66
2021/06/30 01:12:38;;;;;;;21.58;3.97;;;38.20;22.80;;;;;;5050428;28;20085;-64
2021/06/30 01:15:06;;;;;;;26.40;5.13;;;38.20;23.10;;;;;;5045197;28;20077;-64
2021/06/30 01:17:33;;;;;;;25.42;4.05;;;38.10;23.60;;;;;;5043740;28;20123;-66
2021/06/30 01:20:00;;;;;;;23.50;3.60;;;38.00;23.40;;;;;;5064365;28;20180;-64
2021/06/30 01:22:27;;;;;;;23.75;3.88;;;38.00;23.40;;;;;;5039042;28;20160;-63
2021/06/30 01:24:54;;;;;;;19.90;3.60;;;38.00;23.50;;;;;;5046959;28;20108;-65
2021/06/30 01:27:22;;;;;;;23.15;4.18;;;38.00;23.50;;;;;;5044845;28;20551;-64
2021/06/30 01:29:49;;;;;;;22.58;4.18;;;37.90;23.40;;;;;;5044160;28;20437;-64
2021/06/30 01:32:16;;;;;;;25.67;3.90;;;37.90;22.80;;;;;;5042392;28;20161;-64
2021/06/30 01:34:42;;;;;;;23.27;4.10;;;37.90;22.40;;;;;;5045375;28;20148;-63
2021/06/30 01:37:09;;;;;;;21.95;3.72;;;37.90;21.90;;;;;;5039601;28;20086;-64
2021/06/30 01:39:35;;;;;;;16.70;3.05;;;37.90;21.50;;;;;;5044648;28;20070;-63
2021/06/30 01:42:02;;;;;;;18.70;3.30;;;37.80;21.10;;;;;;5046330;28;20074;-64
2021/06/30 01:44:28;;;;;;;22.95;3.78;;;37.70;21.00;;;;;;5046332;28;20074;-64
2021/06/30 01:46:55;;;;;;;16.90;3.38;;;37.70;20.80;;;;;;5045995;28;20102;-63
2021/06/30 01:49:21;;;;;;;12.52;3.13;;;37.70;20.10;;;;;;5045948;28;20092;-63
2021/06/30 01:51:48;;;;;;;20.02;4.10;;;37.60;20.40;;;;;;5044258;28;20078;-64
2021/06/30 01:54:16;;;;;;;25.35;3.58;;;37.60;20.70;;;;;;5045738;28;20595;-64
2021/06/30 01:56:46;;;;;;;15.23;3.78;;;37.60;21.00;;;;;;5051738;28;20073;-63
2021/06/30 01:59:15;;;;;;;21.48;3.38;;;37.50;21.10;;;;;;5047001;28;20494;-63
2021/06/30 02:01:42;;;;;;;21.13;3.55;;;37.50;20.60;;;;;;5046230;28;20082;-62
2021/06/30 02:04:09;;;;;;;22.98;3.65;;;37.40;20.30;;;;;;5044613;28;20069;-64
2021/06/30 02:06:38;;;;;;;25.33;3.65;;;37.40;21.10;;;;;;5046026;28;20098;-62
2021/06/30 02:09:07;;;;;;;19.02;3.20;;;37.30;20.40;;;;;;5045875;28;20108;-64
2021/06/30 02:11:34;;;;;;;15.98;3.83;;;37.30;20.10;;;;;;5045443;28;20126;-63
2021/06/30 02:14:02;;;;;;;23.92;3.85;;;37.30;19.40;;;;;;5045557;28;20088;-63
2021/06/30 02:16:28;;;;;;;22.40;4.05;;;37.30;19.10;;;;;;5044672;28;20073;-63
2021/06/30 02:18:55;;;;;;;15.90;3.65;;;37.30;19.10;;;;;;5047930;28;20195;-63
2021/06/30 02:21:21;;;;;;;15.52;3.05;;;37.20;18.60;;;;;;5042251;28;20088;-63
2021/06/30 02:23:48;;;;;;;26.13;4.13;;;37.20;18.90;;;;;;5043451;28;20096;-64
2021/06/30 02:26:14;;;;;;;14.65;2.70;;;37.10;18.40;;;;;;5045523;28;20135;-64
2021/06/30 02:28:41;;;;;;;23.27;3.65;;;37.10;18.20;;;;;;5047756;28;20086;-64
2021/06/30 02:31:07;;;;;;;20.10;3.40;;;37.10;18.30;;;;;;5046959;28;20074;-64
2021/06/30 02:33:34;;;;;;;11.73;2.33;;;37.10;18.60;;;;;;5043114;28;20121;-65
2021/06/30 02:36:00;;;;;;;15.57;2.55;;;37.00;18.70;;;;;;5045670;28;20106;-62
2021/06/30 02:38:27;;;;;;;20.65;2.40;;;37.00;19.10;;;;;;5044631;28;20077;-64
2021/06/30 02:40:54;;;;;;;18.60;3.33;;;37.00;19.50;;;;;;5043066;28;20103;-63
2021/06/30 02:43:20;;;;;;;20.98;3.42;;;36.90;19.50;;;;;;5045289;28;20600;-63
2021/06/30 02:45:47;;;;;;;30.45;4.25;;;36.80;19.70;;;;;;5044743;28;20552;-62
2021/06/30 02:48:13;;;;;;;25.85;3.95;;;36.80;20.00;;;;;;5041241;28;20117;-61
2021/06/30 02:50:40;;;;;;;24.33;3.90;;;36.70;19.80;;;;;;5042482;28;20070;-64
2021/06/30 02:53:06;;;;;;;22.83;3.60;;;36.70;19.80;;;;;;5043536;28;20079;-64
2021/06/30 02:55:33;;;;;;;21.95;3.40;;;36.60;19.40;;;;;;5060011;28;20080;-63
2021/06/30 02:58:00;;;;;;;21.02;2.80;;;36.60;19.20;;;;;;5045819;28;20141;-64
2021/06/30 03:00:26;;;;;;;30.02;2.95;;;36.50;19.30;;;;;;5043651;28;20074;-64
2021/06/30 03:02:53;;;;;;;23.38;3.00;;;36.40;19.50;;;;;;5041914;28;20073;-64
2021/06/30 03:05:20;;;;;;;25.17;2.72;;;36.40;19.90;;;;;;5043685;28;20100;-64
2021/06/30 03:07:50;;;;;;;18.48;2.95;;;36.40;20.40;;;;;;5046377;28;20117;-66
2021/06/30 03:10:19;;;;;;;21.25;3.47;;;36.20;20.90;;;;;;5042888;28;20066;-64
2021/06/30 03:12:47;;;;;;;20.98;4.30;;;36.20;21.10;;;;;;5044359;28;20151;-64
2021/06/30 03:15:16;;;;;;;29.98;5.40;;;36.10;21.00;;;;;;5043402;28;20604;-64
2021/06/30 03:17:43;;;;;;;19.30;5.15;;;36.10;20.80;;;;;;5042227;28;20079;-64
2021/06/30 03:20:13;;;;;;;23.75;5.53;;;36.10;20.10;;;;;;5045426;28;20079;-64
2021/06/30 03:22:41;;;;;;;19.13;5.05;;;36.00;20.10;;;;;;5046129;28;20078;-63
2021/06/30 03:25:10;;;;;;;22.42;5.60;;;36.00;20.00;;;;;;5041873;28;20081;-63
2021/06/30 03:27:37;;;;;;;26.67;6.20;;;36.00;20.20;;;;;;5059616;28;20108;-64
2021/06/30 03:30:06;;;;;;;23.38;4.40;;;35.90;20.50;;;;;;5061476;28;20077;-65
2021/06/30 03:32:33;;;;;;;22.95;4.53;;;35.90;20.80;;;;;;5039988;28;20426;-65
2021/06/30 03:35:00;;;;;;;25.10;4.30;;;35.80;21.20;;;;;;5042040;28;20192;-61
2021/06/30 03:37:26;;;;;;;16.65;4.10;;;35.80;22.00;;;;;;5040995;28;20131;-62
2021/06/30 03:39:53;;;;;;;23.13;4.47;;;35.70;23.40;;;;;;5044161;28;20074;-64
2021/06/30 03:42:20;;;;;;;26.70;4.05;;;35.70;24.60;;;;;;5058579;28;20473;-62
2021/06/30 03:44:46;;;;;;;26.48;4.28;;;35.70;26.10;;;;;;5059775;28;20127;-65
2021/06/30 03:47:13;;;;;;;24.83;3.65;;;35.60;26.70;;;;;;5043354;28;20094;-64
2021/06/30 03:49:39;;;;;;;21.60;3.85;;;35.50;27.40;;;;;;5042439;28;20119;-61
2021/06/30 03:52:06;;;;;;;17.60;4.20;;;35.40;27.70;;;;;;5044841;28;20438;-63
2021/06/30 03:54:33;;;;;;;27.85;4.55;;;35.30;27.90;;;;;;5041136;28;20076;-63
2021/06/30 03:57:01;;;;;;;34.22;5.00;;;35.30;28.10;;;;;;5042317;28;20097;-62
2021/06/30 03:59:27;;;;;;;21.33;4.13;;;35.20;28.20;;;;;;5060122;28;20085;-65
2021/06/30 04:01:54;;;;;;;27.13;4.20;;;35.10;28.40;;;;;;5054231;28;20575;-63
2021/06/30 04:04:21;;;;;;;26.70;4.40;;;35.00;28.40;;;;;;5061536;28;20127;-62
2021/06/30 04:06:48;;;;;;;24.20;5.45;;;35.00;28.80;;;;;;5043362;28;20094;-61
2021/06/30 04:09:15;;;;;;;28.65;4.53;;;35.00;29.10;;;;;;5061265;28;20082;-61
2021/06/30 04:11:42;;;;;;;17.85;3.95;;;34.90;29.70;;;;;;5059126;28;20070;-61
2021/06/30 04:14:09;;;;;;;23.85;4.05;;;34.80;29.30;;;;;;5044020;28;20093;-61
2021/06/30 04:16:37;;;;;;;20.08;3.45;;;34.80;29.30;;;;;;5043578;28;20078;-64
2021/06/30 04:19:04;;;;;;;25.25;3.95;;;34.80;29.30;;;;;;5045414;28;20077;-63
2021/06/30 04:21:31;;;;;;;25.17;3.67;;;34.80;29.20;;;;;;5040567;28;20073;-64
2021/06/30 04:23:57;;;;;;;21.42;4.40;;;34.70;29.60;;;;;;5047133;28;20132;-62
2021/06/30 04:26:24;;;;;;;27.40;5.75;;;34.70;29.80;;;;;;5045910;28;20082;-62
2021/06/30 04:28:51;;;;;;;20.95;4.82;;;34.60;30.00;;;;;;5047119;28;20086;-61
2021/06/30 04:31:17;;;;;;;26.20;5.32;;;34.50;30.30;;;;;;5047822;28;20085;-60
2021/06/30 04:33:44;;;;;;;32.90;5.05;;;34.50;30.50;;;;;;5045270;28;20118;-60
2021/06/30 04:36:10;;;;;;;21.05;6.22;;;34.50;30.60;;;;;;5048027;28;20080;-61
2021/06/30 04:38:37;;;;;;;29.45;6.82;;;34.50;30.50;;;;;;5045527;28;20074;-62
2021/06/30 04:41:03;;;;;;;28.73;7.45;;;34.50;30.30;;;;;;5047050;28;20089;-62
2021/06/30 04:43:30;;;;;;;28.55;8.40;;;34.50;30.00;;;;;;5044101;28;20085;-61
2021/06/30 04:45:56;;;;;;;36.40;9.75;;;34.40;30.00;;;;;;5047219;28;20070;-61
2021/06/30 04:48:23;;;;;;;37.03;10.27;;;34.40;29.90;;;;;;5048613;28;20097;-60
2021/06/30 04:50:49;;;;;;;28.35;8.40;;;34.40;29.70;;;;;;5043342;28;20065;-61
2021/06/30 04:53:16;;;;;;;25.27;7.70;;;34.40;29.90;;;;;;5046634;28;20081;-61
2021/06/30 04:55:43;;;;;;;27.70;6.00;;;34.30;30.00;;;;;;5045634;28;20073;-63
2021/06/30 04:58:09;;;;;;;34.42;5.38;;;34.20;30.00;;;;;;5044283;28;20078;-63
2021/06/30 05:00:36;;;;;;;37.53;5.68;;;34.20;30.00;;;;;;5046070;28;20535;-62
2021/06/30 05:03:02;;;;;;;39.85;5.38;;;34.20;30.20;;;;;;5046229;28;20154;-64
2021/06/30 05:05:29;;;;;;;32.58;5.50;;;34.20;30.30;;;;;;5046174;28;20119;-63
2021/06/30 05:07:56;;;;;;;25.85;5.72;;;34.20;30.20;;;;;;5043502;28;20151;-65
2021/06/30 05:10:22;;;;;;;19.95;3.75;;;34.10;30.40;;;;;;5055787;28;20523;-62
2021/06/30 05:12:49;;;;;;;16.08;3.67;;;34.00;31.60;;;;;;5046089;28;20073;-63
2021/06/30 05:15:16;;;;;;;21.15;3.17;;;33.80;31.80;;;;;;5047439;28;20069;-57
2021/06/30 05:17:42;;;;;;;22.35;3.40;;;33.80;30.80;;;;;;5059823;28;20082;-62
2021/06/30 05:20:09;;;;;;;31.17;3.50;;;33.80;31.00;;;;;;5045018;28;20076;-63
2021/06/30 05:22:36;;;;;;;23.25;3.90;;;33.60;33.30;;;;;;5045613;28;20081;-64
2021/06/30 05:25:03;;;;;;;28.05;3.42;;;33.50;34.50;;;;;;5045622;28;20078;-65
2021/06/30 05:27:30;;;;;;;31.13;4.43;;;33.40;35.10;;;;;;5061289;28;20090;-65
2021/06/30 05:29:56;;;;;;;21.98;4.72;;;33.30;35.70;;;;;;5060795;28;20147;-65
2021/06/30 05:32:23;;;;;;;32.72;6.05;;;33.20;36.10;;;;;;5041574;28;20085;-64
2021/06/30 05:34:49;;;;;;;38.30;6.68;;;33.10;36.90;;;;;;5062222;28;20133;-65
2021/06/30 05:37:16;;;;;;;33.50;5.78;;;33.00;37.80;;;;;;5044192;28;20188;-67
2021/06/30 05:39:42;;;;;;;23.77;4.53;;;32.90;38.50;;;;;;5047318;28;20153;-66
2021/06/30 05:42:09;;;;;;;27.63;5.50;;;32.90;38.50;;;;;;5045060;28;20081;-66
2021/06/30 05:44:36;;;;;;;25.95;4.72;;;32.90;37.50;;;;;;5047370;28;20070;-65
2021/06/30 05:47:02;;;;;;;20.23;4.30;;;32.90;36.30;;;;;;5044273;28;20089;-65
2021/06/30 05:49:29;;;;;;;32.10;4.10;;;32.80;34.20;;;;;;5043965;28;20070;-66
2021/06/30 05:51:55;;;;;;;21.10;4.55;;;32.90;32.80;;;;;;5044193;28;20165;-64
2021/06/30 05:54:22;;;;;;;22.95;3.35;;;32.90;31.10;;;;;;5046024;28;20077;-64
2021/06/30 05:56:48;;;;;;;12.90;2.67;;;32.90;30.50;;;;;;5045478;28;20423;-63
2021/06/30 05:59:15;;;;;;;13.25;2.97;;;32.80;29.10;;;;;;5044849;28;20418;-63
2021/06/30 06:01:42;;;;;;;20.88;3.78;;;32.80;28.20;;;;;;5058225;28;20070;-65
2021/06/30 06:04:08;;;;;;;24.23;3.58;;;32.80;28.50;;;;;;5045954;28;20073;-59
2021/06/30 06:06:35;;;;;;;20.20;2.80;;;32.70;29.00;;;;;;5045222;28;20140;-63
2021/06/30 06:09:01;;;;;;;19.88;3.70;;;32.60;30.00;;;;;;5046841;28;20152;-62
2021/06/30 06:11:28;;;;;;;21.13;4.03;;;32.50;34.60;;;;;;5043648;28;20073;-58
2021/06/30 06:13:54;;;;;;;28.50;4.60;;;32.50;34.90;;;;;;5044047;28;20089;-61
2021/06/30 06:16:22;;;;;;;30.65;4.10;;;32.40;38.70;;;;;;5043356;28;20073;-62
2021/06/30 06:18:49;;;;;;;26.98;3.97;;;32.10;42.60;;;;;;5041447;28;20086;-62
2021/06/30 06:21:16;;;;;;;24.42;4.90;;;32.00;45.10;;;;;;5045386;28;20082;-62
2021/06/30 06:23:43;;;;;;;29.50;6.05;;;32.00;46.10;;;;;;5045363;28;21010;-62
2021/06/30 06:26:12;;;;;;;34.67;7.38;;;32.00;46.50;;;;;;5045809;28;20076;-61
2021/06/30 06:28:39;;;;;;;30.48;8.73;;;31.90;46.60;;;;;;5047639;28;21396;-63
2021/06/30 06:31:10;;;;;;;43.28;10.98;;;31.70;47.00;;;;;;5042898;28;20192;-61
2021/06/30 06:33:37;;;;;;;36.28;15.48;;;31.70;48.10;;;;;;5046102;28;20109;-63
2021/06/30 06:36:03;;;;;;;40.97;14.30;;;31.60;48.60;;;;;;5047395;28;20074;-63
2021/06/30 06:38:32;;;;;;;31.08;11.10;;;31.60;49.20;;;;;;5041398;28;20078;-63
2021/06/30 06:40:59;;;;;;;38.80;11.27;;;31.50;50.00;;;;;;5044261;28;20084;-62
2021/06/30 06:43:25;;;;;;;34.17;11.45;;;31.50;50.30;;;;;;5058183;28;20085;-61
2021/06/30 06:45:52;;;;;;;30.70;10.93;;;31.50;50.70;;;;;;5041877;28;20076;-61
2021/06/30 06:48:19;;;;;;;31.08;9.95;;;31.40;51.10;;;;;;5044508;28;20546;-62
2021/06/30 06:50:45;;;;;;;33.97;10.88;;;31.60;51.00;;;;;;5042480;28;20152;-61
2021/06/30 06:53:12;;;;;;;28.83;10.77;;;31.30;51.40;;;;;;5046879;28;20104;-62
2021/06/30 06:55:39;;;;;;;33.33;11.38;;;31.30;51.30;;;;;;5043631;28;20062;-63
2021/06/30 06:58:06;;;;;;;31.02;9.50;;;31.30;51.70;;;;;;5045307;28;20093;-61
2021/06/30 07:00:32;;;;;;;26.38;7.57;;;31.40;51.90;;;;;;5046290;28;20670;-61
2021/06/30 07:02:59;;;;;;;26.95;7.15;;;31.30;51.90;;;;;;5040972;28;20445;-63
2021/06/30 07:05:25;;;;;;;22.08;6.22;;;31.30;53.40;;;;;;5042201;28;20131;-63
2021/06/30 07:07:52;;;;;;;26.42;6.43;;;31.30;54.00;;;;;;5043394;28;20136;-63
2021/06/30 07:10:21;;;;;;;28.42;7.10;;;31.30;54.40;;;;;;5055556;28;20091;-63
2021/06/30 07:12:47;;;;;;;21.83;7.03;;;31.30;54.40;;;;;;5044240;28;20554;-62
2021/06/30 07:15:14;;;;;;;23.33;6.45;;;31.30;54.50;;;;;;5043726;28;20120;-62
2021/06/30 07:17:40;;;;;;;17.50;5.60;;;31.30;54.70;;;;;;5044714;28;20108;-61
2021/06/30 07:20:10;;;;;;;35.72;5.95;;;31.30;54.70;;;;;;5046704;28;20095;-62
2021/06/30 07:22:36;;;;;;;27.02;5.75;;;31.30;54.60;;;;;;5044214;28;20078;-61
2021/06/30 07:25:04;;;;;;;19.73;5.55;;;31.30;54.50;;;;;;5045170;28;20070;-61
2021/06/30 07:27:30;;;;;;;19.85;5.93;;;31.40;54.40;;;;;;5043645;28;20198;-62
2021/06/30 07:29:57;;;;;;;18.13;5.82;;;31.30;54.20;;;;;;5043463;28;20078;-62
2021/06/30 07:32:23;;;;;;;18.10;5.45;;;31.20;53.70;;;;;;5043576;28;20080;-63
2021/06/30 07:34:50;;;;;;;13.75;4.47;;;31.30;53.70;;;;;;5042975;28;20167;-62
2021/06/30 07:37:16;;;;;;;20.48;5.20;;;31.30;54.20;;;;;;5041767;28;20089;-62
2021/06/30 07:39:43;;;;;;;19.05;5.15;;;31.30;53.50;;;;;;5044062;28;20484;-63
2021/06/30 07:42:09;;;;;;;20.52;4.70;;;31.30;52.90;;;;;;5043291;28;20074;-62
2021/06/30 07:44:36;;;;;;;20.77;4.88;;;31.30;52.90;;;;;;5047007;28;20042;-63
2021/06/30 07:47:02;;;;;;;21.92;4.95;;;31.20;53.70;;;;;;5045106;28;20434;-66
2021/06/30 07:49:29;;;;;;;17.73;5.03;;;31.20;54.50;;;;;;5044233;28;20078;-63
2021/06/30 07:51:55;;;;;;;16.38;4.63;;;31.20;55.20;;;;;;5055796;28;20077;-62
2021/06/30 07:54:22;;;;;;;18.08;4.88;;;31.20;55.90;;;;;;5049702;28;20549;-61
2021/06/30 07:56:48;;;;;;;20.60;4.30;;;31.10;56.10;;;;;;5044216;28;20592;-62
2021/06/30 07:59:15;;;;;;;16.67;4.50;;;31.20;56.20;;;;;;5045806;28;20197;-61
2021/06/30 08:01:42;;;;;;;20.83;5.38;;;31.00;56.60;;;;;;5042893;28;20161;-62
2021/06/30 08:04:08;;;;;;;27.13;5.00;;;31.00;57.00;;;;;;5047155;28;20074;-60
2021/06/30 08:06:36;;;;;;;17.33;5.20;;;31.00;57.90;;;;;;5045905;28;20031;-63
2021/06/30 08:09:06;;;;;;;17.13;4.90;;;30.90;58.40;;;;;;5049227;28;20082;-65
2021/06/30 08:11:33;;;;;;;22.63;5.78;;;30.90;58.90;;;;;;5045792;28;20076;-63
2021/06/30 08:14:00;;;;;;;30.40;6.82;;;30.90;60.00;;;;;;5045743;28;20080;-69
2021/06/30 08:16:26;;;;;;;24.40;6.35;;;30.80;63.70;;;;;;5043771;28;20069;-63
2021/06/30 08:18:53;;;;;;;32.88;7.85;;;30.70;66.20;;;;;;5046980;28;20132;-63
2021/06/30 08:21:24;;;;;;;34.72;8.63;;;30.60;69.00;;;;;;5041969;28;20066;-60
2021/06/30 08:23:52;;;;;;;30.42;9.10;;;30.50;71.20;;;;;;5045354;28;21576;-62
2021/06/30 08:26:19;;;;;;;33.42;9.02;;;30.40;72.80;;;;;;5044495;28;20551;-63
2021/06/30 08:28:47;;;;;;;26.90;8.15;;;30.30;74.60;;;;;;5048148;28;20103;-64
2021/06/30 08:31:14;;;;;;;23.52;6.97;;;30.30;74.40;;;;;;5046678;28;20069;-63
2021/06/30 08:33:40;;;;;;;25.95;6.30;;;30.30;74.60;;;;;;5050324;28;20123;-63
2021/06/30 08:36:07;;;;;;;30.60;6.72;;;30.30;75.30;;;;;;5044837;28;20426;-60
2021/06/30 08:38:33;;;;;;;25.30;5.70;;;30.20;75.80;;;;;;5046533;28;20156;-63
2021/06/30 08:41:01;;;;;;;24.40;6.03;;;30.20;76.60;;;;;;5047313;28;20078;-62
2021/06/30 08:43:28;;;;;;;26.52;5.40;;;30.20;76.60;;;;;;5039687;28;20477;-61
2021/06/30 08:45:55;;;;;;;23.17;5.75;;;30.10;77.10;;;;;;5061549;28;20070;-62
2021/06/30 08:48:23;;;;;;;24.90;6.30;;;30.00;77.40;;;;;;5046717;28;20106;-61
2021/06/30 08:50:52;;;;;;;25.10;5.63;;;30.00;77.40;;;;;;5046917;28;20078;-63
2021/06/30 08:53:20;;;;;;;25.83;5.75;;;30.00;78.40;;;;;;5047966;28;20165;-62
2021/06/30 08:55:47;;;;;;;27.05;5.75;;;29.90;79.70;;;;;;5047458;28;20106;-63
2021/06/30 08:58:14;;;;;;;25.77;6.28;;;29.90;80.00;;;;;;5045579;28;20100;-58
2021/06/30 09:00:42;;;;;;;28.65;6.03;;;29.90;81.00;;;;;;5048358;28;20160;-63
2021/06/30 09:03:15;;;;;;;23.80;5.43;;;29.80;81.10;;;;;;5046369;28;20081;-64
2021/06/30 09:08:44;;;;;;;25.90;5.43;;;29.50;82.30;;;;;;5045517;28;20105;-63
2021/06/30 09:11:14;;;;;;;25.27;6.38;;;29.70;81.90;;;;;;5039988;28;20078;-63
2021/06/30 09:13:41;;;;;;;26.77;5.28;;;29.60;81.80;;;;;;5058905;28;20088;-63
2021/06/30 09:16:08;;;;;;;28.60;5.60;;;29.60;82.10;;;;;;5048665;28;20066;-59
2021/06/30 09:18:36;;;;;;;27.63;6.20;;;29.60;83.00;;;;;;5048462;28;20095;-64
2021/06/30 09:21:30;;;;;;;32.25;6.88;;;29.40;82.90;;;;;;5045209;28;20144;-62
2021/06/30 09:24:19;;;;;;;31.48;6.47;;;29.30;83.60;;;;;;5045639;28;20538;-62
2021/06/30 09:26:58;;;;;;;28.55;6.35;;;29.40;83.30;;;;;;5045431;28;20097;-63
2021/06/30 09:29:26;;;;;;;26.75;6.68;;;29.40;81.70;;;;;;5056959;28;20105;-61
2021/06/30 09:31:54;;;;;;;25.73;6.45;;;29.20;82.10;;;;;;5045202;28;20073;-63
2021/06/30 09:34:30;;;;;;;29.90;6.82;;;29.20;82.00;;;;;;5045498;28;20121;-62
2021/06/30 09:37:04;;;;;;;24.55;5.95;;;29.10;82.30;;;;;;5045554;28;20165;-62
2021/06/30 09:39:36;;;;;;;25.10;5.22;;;29.10;82.00;;;;;;5043879;28;20123;-62
2021/06/30 09:42:13;;;;;;;25.60;6.10;;;29.00;81.10;;;;;;5046610;28;20527;-62
2021/06/30 09:44:42;;;;;;;19.60;5.38;;;29.00;80.40;;;;;;5047884;28;20157;-62
2021/06/30 09:47:09;;;;;;;23.00;5.22;;;29.10;79.80;;;;;;5045640;28;20094;-63
2021/06/30 09:49:38;;;;;;;20.05;4.78;;;29.10;78.30;;;;;;5043735;28;20077;-65
2021/06/30 09:52:12;;;;;;;17.80;4.55;;;29.10;75.90;;;;;;5044821;28;20085;-63
2021/06/30 09:54:41;;;;;;;15.95;4.70;;;29.10;75.30;;;;;;5041757;28;20066;-62
2021/06/30 09:57:10;;;;;;;21.13;4.95;;;29.00;74.70;;;;;;5045430;28;20467;-66
2021/06/30 09:59:39;;;;;;;17.38;4.93;;;29.00;74.20;;;;;;5047306;28;20081;-62
2021/06/30 10:02:08;;;;;;;15.88;4.35;;;28.90;74.60;;;;;;5045102;28;20077;-62
2021/06/30 10:04:38;;;;;;;24.77;5.25;;;28.90;74.50;;;;;;5038290;28;20074;-63
2021/06/30 10:07:15;;;;;;;15.00;4.32;;;28.90;96.70;;;;;;5041852;28;20455;-63
2021/06/30 10:10:00;;;;;;;21.13;4.88;;;28.90;97.20;;;;;;5042698;28;20088;-61
2021/06/30 10:12:30;;;;;;;19.58;4.50;;;28.30;73.60;;;;;;5046097;28;20065;-62
2021/06/30 10:14:57;;;;;;;17.65;4.10;;;29.00;75.00;;;;;;5041429;28;20085;-63
2021/06/30 10:17:25;;;;;;;21.33;4.82;;;28.80;95.00;;;;;;5044535;28;20024;-62
2021/06/30 10:19:54;;;;;;;17.63;4.10;;;28.90;97.70;;;;;;5042188;28;20171;-62
2021/06/30 10:22:22;;;;;;;17.50;3.88;;;28.90;72.40;;;;;;5045168;28;20527;-63
2021/06/30 10:24:49;;;;;;;21.95;3.65;;;28.90;72.30;;;;;;5043183;28;20066;-62
2021/06/30 10:27:16;;;;;;;19.80;3.90;;;29.00;71.60;;;;;;5044015;28;20100;-61
2021/06/30 10:29:45;;;;;;;13.85;3.53;;;28.50;91.20;;;;;;5044318;28;20077;-63
2021/06/30 10:32:15;;;;;;;18.60;3.85;;;28.70;96.20;;;;;;5059809;28;20064;-63
2021/06/30 10:34:53;;;;;;;18.48;3.47;;;28.80;72.20;;;;;;5043345;28;20117;-64
2021/06/30 10:37:36;;;;;;;19.05;4.18;;;28.80;72.60;;;;;;5042365;28;20069;-63
2021/06/30 10:40:11;;;;;;;17.33;4.13;;;28.70;72.10;;;;;;5042814;28;20090;-63
2021/06/30 10:42:41;;;;;;;21.05;4.70;;;28.70;72.70;;;;;;5042961;28;20429;-61
2021/06/30 10:45:17;;;;;;;12.82;3.67;;;28.60;72.70;;;;;;5043293;28;20108;-63
2021/06/30 10:47:51;;;;;;;14.60;3.85;;;28.60;72.50;;;;;;5044037;28;20133;-64
2021/06/30 10:50:24;;;;;;;18.98;4.05;;;28.60;72.50;;;;;;5044802;28;20069;-63
2021/06/30 10:53:04;;;;;;;17.77;3.90;;;28.60;71.90;;;;;;5043958;28;20073;-62
2021/06/30 10:55:35;;;;;;;16.88;4.15;;;28.60;71.40;;;;;;5043987;28;20069;-62
2021/06/30 10:58:15;;;;;;;18.25;4.18;;;28.60;71.50;;;;;;5047155;28;20200;-64
2021/06/30 11:00:52;;;;;;;20.10;3.78;;;28.50;70.10;;;;;;5048261;28;20164;-62
2021/06/30 11:03:22;;;;;;;;;;;28.50;69.90;;;;;;5048137;28;20514;-62
2021/06/30 11:05:54;;;;;;;13.98;3.28;;;28.50;69.80;;;;;;5044402;28;19957;-61
2021/06/30 11:09:05;;;;;;;16.85;3.75;;;28.50;69.40;;;;;;5042913;28;20097;-64
2021/06/30 11:11:35;;;;;;;17.20;3.42;;;28.50;68.70;;;;;;5011460;28;20446;-62
2021/06/30 11:14:06;;;;;;;17.42;3.13;;;28.40;68.50;;;;;;5042665;28;20153;-62
2021/06/30 11:16:48;;;;;;;12.13;3.47;;;28.40;68.40;;;;;;5042319;28;20535;-65
2021/06/30 11:19:17;;;;;;;17.42;3.45;;;28.40;68.10;;;;;;5043853;28;20157;-61
2021/06/30 11:21:56;;;;;;;14.18;3.13;;;28.30;68.10;;;;;;5041140;28;20073;-59
2021/06/30 11:24:45;;;;;;;21.63;4.45;;;28.30;68.20;;;;;;5041013;28;20145;-61
2021/06/30 11:30:07;;;;;;;22.15;4.45;;;28.30;68.20;;;;;;5042812;28;20081;-59
2021/06/30 11:32:37;;;;;;;25.60;5.32;;;28.30;68.50;;;;;;5042911;28;20538;-63
2021/06/30 11:35:10;;;;;;;16.95;4.18;;;28.20;69.40;;;;;;5042965;28;20069;-60
2021/06/30 11:37:42;;;;;;;18.27;4.07;;;28.30;69.00;;;;;;5044299;28;20088;-62
2021/06/30 11:42:50;;;;;;;21.00;5.97;;;28.30;69.70;;;;;;5043333;28;20061;-62
2021/06/30 11:45:17;;;;;;;24.58;4.90;;;28.20;70.30;;;;;;5041529;28;20077;-62
2021/06/30 11:47:46;;;;;;;23.75;5.47;;;28.20;70.10;;;;;;5043399;28;20145;-63
2021/06/30 11:50:17;;;;;;;21.55;5.43;;;28.30;70.70;;;;;;5043136;28;20555;-61
2021/06/30 11:52:46;;;;;;;16.77;4.45;;;28.20;70.40;;;;;;5045792;28;20086;-61
2021/06/30 11:55:13;;;;;;;18.05;4.75;;;28.20;70.80;;;;;;5058272;28;20168;-61
2021/06/30 11:58:01;;;;;;;16.33;4.43;;;28.10;71.20;;;;;;5041963;28;20426;-58
2021/06/30 12:00:30;;;;;;;19.13;4.50;;;28.10;71.50;;;;;;5043437;28;20070;-63
2021/06/30 12:02:58;;;;;;;14.73;4.15;;;28.10;71.20;;;;;;5043069;28;20157;-63
2021/06/30 12:05:27;;;;;;;18.33;4.13;;;28.20;72.20;;;;;;5042876;28;20527;-61
2021/06/30 12:07:55;;;;;;;20.13;4.30;;;28.10;71.60;;;;;;5042315;28;20517;-63
2021/06/30 12:10:29;;;;;;;25.52;4.15;;;28.00;72.30;;;;;;5041444;28;20078;-63
2021/06/30 12:12:56;;;;;;;16.23;4.20;;;28.10;72.40;;;;;;5042791;28;20078;-62
2021/06/30 12:15:23;;;;;;;20.15;5.03;;;28.10;73.40;;;;;;5041792;28;20212;-61
2021/06/30 12:17:52;;;;;;;19.50;3.70;;;28.10;72.10;;;;;;5041818;28;20085;-63
2021/06/30 12:20:20;;;;;;;16.80;3.53;;;28.10;71.70;;;;;;5042350;28;20065;-63
2021/06/30 12:22:48;;;;;;;20.45;4.68;;;28.10;72.10;;;;;;5043699;28;20131;-64
2021/06/30 12:25:17;;;;;;;16.80;3.88;;;28.10;70.30;;;;;;5045295;28;20101;-62
2021/06/30 12:27:47;;;;;;;23.55;4.68;;;28.00;70.00;;;;;;5041837;28;20143;-62
2021/06/30 12:30:15;;;;;;;19.75;4.47;;;28.10;69.80;;;;;;5043392;28;20080;-62
2021/06/30 12:32:48;;;;;;;20.85;4.65;;;28.10;69.40;;;;;;5044201;28;20086;-62
2021/06/30 12:35:21;;;;;;;20.17;4.97;;;28.10;68.90;;;;;;5042688;28;20164;-62
2021/06/30 12:38:03;;;;;;;24.02;5.93;;;28.10;67.90;;;;;;5047175;28;20149;-62
2021/06/30 12:40:32;;;;;;;25.17;5.97;;;28.10;67.70;;;;;;5046032;28;20070;-61
2021/06/30 12:43:03;;;;;;;20.00;4.60;;;28.10;67.90;;;;;;5060861;28;20089;-61
2021/06/30 12:45:40;;;;;;;19.33;4.72;;;28.00;68.30;;;;;;5046106;28;20077;-60
2021/06/30 12:48:29;;;;;;;;;;;27.90;68.30;;;;;;5044299;28;20474;-63
2021/06/30 12:51:08;;;;;;;18.50;5.50;;;27.90;68.10;;;;;;5040187;28;20004;-62
2021/06/30 12:53:39;;;;;;;20.90;5.95;;;28.00;67.30;;;;;;5045866;28;20070;-63